Impacts METAR Board
IDs:

KMOB - Mobile Rgnl, AL, US

Updated at: 1300 UTC 21 Feb 2019
Potential Impact None Slight Moderate High
Time 21/01Z 21/02Z 21/03Z 21/04Z 21/05Z 21/06Z 21/07Z 21/08Z 21/09Z 21/10Z 21/11Z 21/12Z 21/13Z
Temp71 71 71 70 70 70 71 71 71 70 69 69 69
Dewpt71 70 70 70 70 70 70 70 70 69 69 69 69
Altim29.96 29.97 29.98 29.99 30.00 29.98 29.98 29.99 30.00 29.99 30.00 30.02 30.03
VIS0.75 5 1.5 0.75 1 6 2 4 2.5 1.25 0.5 0.5 1.5
CIG2 4 2 2 2 4 2 3 3 2 3 7 5
CoverOVCOVCOVCOVCOVCOVCOVCOVCOVCOVCOVXOVCOVC
FltCatLIFRLIFRLIFRLIFRLIFRLIFRLIFRLIFRLIFRLIFRLIFRLIFRIFR
WXBRBRBRBRBRBRBRBRBRBRRA FGFGBR
WDir21019020020020019021021022024019000
WSpd10 12 9 8 9 7 7 9 7 7 3 0 0
WGst-- -- -- -- -- -- -- -- -- -- -- -- --
Raw hourly METARs
KMOB 210056Z 21010KT 3/4SM BR OVC002 22/22 A2996 RMK AO2 SFC VIS 1 1/4 SLP144 T02170217
KMOB 210156Z 19012KT 5SM BR OVC004 22/21 A2997 RMK AO2 SLP148 T02170211
KMOB 210256Z 20009KT 170V230 1 1/2SM BR OVC002 22/21 A2998 RMK AO2 SLP151 T02170211 51006
KMOB 210356Z 20008KT 3/4SM BR OVC002 21/21 A2999 RMK AO2 SLP154 T02110211
KMOB 210503Z AUTO 20009KT 1SM BR OVC002 21/21 A3000 RMK AO2 T02110211
KMOB 210556Z AUTO 19007KT 6SM BR OVC004 21/21 A2998 RMK AO2 SLP149 T02110211 10222 20211 402390183 58002
KMOB 210656Z AUTO 21007KT 2SM BR OVC002 22/21 A2998 RMK AO2 SLP148 T02170211
KMOB 210756Z AUTO 21009KT 4SM BR OVC003 22/21 A2999 RMK AO2 SLP154 T02170211
KMOB 210856Z AUTO 22007KT 2 1/2SM BR OVC003 22/21 A3000 RMK AO2 SLP154 T02170211 53005
KMOB 210956Z AUTO 24007KT 1 1/4SM BR OVC002 21/21 A2999 RMK AO2 SLP154 T02110206
KMOB 211056Z AUTO 19003KT 1/2SM RA FG VV003 21/21 A3000 RMK AO2 RAB52 SLP156 P0000 T02060206
KMOB 211156Z 00000KT 1/2SM FG BKN007 OVC010 21/21 A3002 RMK AO2 RAE06 SLP162 P0003 60003 70004 T02060206 10217 20206 53007
KMOB 211256Z 00000KT 1 1/2SM BR OVC005 21/21 A3003 RMK AO2 SLP167 T02060206



Page loaded:  13:25 UTC  |   05:25 AM Pacific  |   06:25 AM Mountain  |   07:25 AM Central  |   08:25 AM Eastern

 

ADVISORIES

FORECASTS

FORECASTS

OBSERVATIONS

USER TOOLS

ABOUT US